createdAt,value
2018-12-11T00:01:48.726Z,5.37
2018-12-11T00:04:16.263Z,6.07
2018-12-11T00:06:43.743Z,3.97
2018-12-11T00:09:11.296Z,8.33
2018-12-11T00:11:38.832Z,4.90
2018-12-11T00:14:06.294Z,3.23
2018-12-11T00:16:33.752Z,3.17
2018-12-11T00:19:01.192Z,2.97
2018-12-11T00:21:28.773Z,3.40
2018-12-11T00:23:56.593Z,4.63
2018-12-11T00:26:24.036Z,5.40
2018-12-11T00:28:51.494Z,4.97
2018-12-11T00:31:18.996Z,3.57
2018-12-11T00:33:46.439Z,3.53
2018-12-11T00:36:13.960Z,4.67
2018-12-11T00:38:41.413Z,7.03
2018-12-11T00:41:08.940Z,4.27
2018-12-11T00:43:36.501Z,4.10
2018-12-11T00:46:04.032Z,3.37
2018-12-11T00:48:31.491Z,2.43
2018-12-11T00:50:58.952Z,2.83
2018-12-11T00:53:26.513Z,5.03
2018-12-11T00:55:53.972Z,4.07
2018-12-11T00:58:21.516Z,2.43
2018-12-11T01:00:49.000Z,3.33
2018-12-11T01:03:16.560Z,1.37
2018-12-11T01:05:44.102Z,3.57
2018-12-11T01:08:11.574Z,2.47
2018-12-11T01:10:39.048Z,3.20
2018-12-11T01:13:06.560Z,4.40
2018-12-11T01:15:34.013Z,3.17
2018-12-11T01:18:01.544Z,3.50
2018-12-11T01:20:29.100Z,3.60
2018-12-11T01:22:56.616Z,3.00
2018-12-11T01:25:24.472Z,3.03
2018-12-11T01:27:52.116Z,3.07
2018-12-11T01:30:19.564Z,3.83
2018-12-11T01:32:47.007Z,2.73
2018-12-11T01:35:14.448Z,5.10
2018-12-11T01:37:42.008Z,2.80
2018-12-11T01:40:09.504Z,3.93
2018-12-11T01:42:37.038Z,2.73
2018-12-11T01:45:05.160Z,3.67
2018-12-11T01:47:32.588Z,2.70
2018-12-11T01:50:00.040Z,3.57
2018-12-11T01:52:27.563Z,3.47
2018-12-11T01:54:55.001Z,3.90
2018-12-11T01:57:22.507Z,3.20
2018-12-11T01:59:49.976Z,3.07
2018-12-11T02:02:17.448Z,3.27
2018-12-11T02:04:45.058Z,3.13
2018-12-11T02:07:12.484Z,2.40
2018-12-11T02:09:40.033Z,3.50
2018-12-11T02:12:07.557Z,3.00
2018-12-11T02:14:34.999Z,2.63
2018-12-11T02:17:02.463Z,3.80
2018-12-11T02:19:30.201Z,2.23
2018-12-11T02:21:57.674Z,3.23
2018-12-11T02:24:25.138Z,2.73
2018-12-11T02:26:52.648Z,5.90
2018-12-11T02:29:20.161Z,2.70
2018-12-11T02:31:47.651Z,2.23
2018-12-11T02:34:15.100Z,2.67
2018-12-11T02:36:42.627Z,2.87
2018-12-11T02:39:10.147Z,2.87
2018-12-11T02:41:37.577Z,3.83
2018-12-11T02:44:05.096Z,1.77
2018-12-11T02:46:32.578Z,5.33
2018-12-11T02:49:00.282Z,2.43
2018-12-11T02:51:27.780Z,4.73
2018-12-11T02:53:55.328Z,3.77
2018-12-11T02:56:22.809Z,1.27
2018-12-11T02:58:50.252Z,1.70
2018-12-11T03:01:17.814Z,2.23
2018-12-11T03:03:45.401Z,3.97
2018-12-11T03:06:12.849Z,2.13
2018-12-11T03:08:40.374Z,2.27
2018-12-11T03:11:07.919Z,3.20
2018-12-11T03:13:35.454Z,3.13
2018-12-11T03:16:02.947Z,5.03
2018-12-11T03:18:30.415Z,6.43
2018-12-11T03:20:57.880Z,5.13
2018-12-11T03:23:25.453Z,2.23
2018-12-11T03:25:53.001Z,2.30
2018-12-11T03:28:20.562Z,4.30
2018-12-11T03:30:48.089Z,3.33
2018-12-11T03:33:15.719Z,3.33
2018-12-11T03:35:43.157Z,1.60
2018-12-11T03:38:10.676Z,3.87
2018-12-11T03:40:38.291Z,3.73
2018-12-11T03:43:05.784Z,1.90
2018-12-11T03:45:33.304Z,4.63
2018-12-11T03:48:00.801Z,2.67
2018-12-11T03:50:28.238Z,2.07
2018-12-11T03:52:55.708Z,2.37
2018-12-11T03:55:23.440Z,4.23
2018-12-11T03:57:50.993Z,3.40
2018-12-11T04:00:18.450Z,2.50
2018-12-11T04:02:45.872Z,3.87
2018-12-11T04:05:13.403Z,5.23
2018-12-11T04:07:40.924Z,2.27
2018-12-11T04:10:08.418Z,2.43
2018-12-11T04:12:36.246Z,1.53
2018-12-11T04:15:04.246Z,3.40
2018-12-11T04:17:31.801Z,2.37
2018-12-11T04:19:59.238Z,2.03
2018-12-11T04:22:26.682Z,2.10
2018-12-11T04:24:54.173Z,3.50
2018-12-11T04:27:21.629Z,2.33
2018-12-11T04:29:49.084Z,1.97
2018-12-11T04:32:16.709Z,3.00
2018-12-11T04:34:44.241Z,1.60
2018-12-11T04:37:11.682Z,2.47
2018-12-11T04:39:39.223Z,1.90
2018-12-11T04:42:06.737Z,3.30
2018-12-11T04:44:34.229Z,3.57
2018-12-11T04:47:01.700Z,3.13
2018-12-11T04:49:29.289Z,1.93
2018-12-11T04:51:56.704Z,3.10
2018-12-11T04:54:24.160Z,3.27
2018-12-11T04:56:51.680Z,1.60
2018-12-11T04:59:19.171Z,2.77
2018-12-11T05:01:46.629Z,1.77
2018-12-11T05:04:14.456Z,3.73
2018-12-11T05:06:41.933Z,2.97
2018-12-11T05:09:09.622Z,1.30
2018-12-11T05:11:37.169Z,1.73
2018-12-11T05:14:04.729Z,2.23
2018-12-11T05:16:32.181Z,2.50
2018-12-11T05:18:59.629Z,3.43
2018-12-11T05:21:27.094Z,2.80
2018-12-11T05:23:54.614Z,2.33
2018-12-11T05:26:22.028Z,5.77
2018-12-11T05:28:49.472Z,4.00
2018-12-11T05:31:16.921Z,6.10
2018-12-11T05:33:44.378Z,6.10
2018-12-11T05:36:11.830Z,7.30
2018-12-11T05:38:39.296Z,6.87
2018-12-11T05:41:06.741Z,5.43
2018-12-11T05:43:34.195Z,6.90
2018-12-11T05:46:01.681Z,5.37
2018-12-11T05:48:29.140Z,5.83
2018-12-11T05:50:56.736Z,5.77
2018-12-11T05:53:24.228Z,8.70
2018-12-11T05:55:51.842Z,11.10
2018-12-11T05:58:19.345Z,8.90
2018-12-11T06:00:46.872Z,17.83
2018-12-11T06:03:14.358Z,18.90
2018-12-11T06:05:41.896Z,7.07
2018-12-11T06:08:09.337Z,12.70
2018-12-11T06:10:36.792Z,7.10
2018-12-11T06:13:04.287Z,8.50
2018-12-11T06:15:31.741Z,13.63
2018-12-11T06:17:59.201Z,9.00
2018-12-11T06:20:26.690Z,14.30
2018-12-11T06:22:54.201Z,4.73
2018-12-11T06:25:21.681Z,6.80
2018-12-11T06:27:49.225Z,7.40
2018-12-11T06:30:16.676Z,8.17
2018-12-11T06:32:44.179Z,5.07
2018-12-11T06:35:11.693Z,6.17
2018-12-11T06:37:39.428Z,7.20
2018-12-11T06:40:06.901Z,8.17
2018-12-11T06:42:34.373Z,13.50
2018-12-11T06:45:01.841Z,12.63
2018-12-11T06:47:29.380Z,10.63
2018-12-11T06:49:56.849Z,8.93
2018-12-11T06:52:24.292Z,8.97
2018-12-11T06:54:51.752Z,5.43
2018-12-11T06:57:19.207Z,8.83
2018-12-11T06:59:46.665Z,7.50
2018-12-11T07:02:14.117Z,5.27
2018-12-11T07:04:41.848Z,8.37
2018-12-11T07:07:09.337Z,18.07
2018-12-11T07:09:36.796Z,7.67
2018-12-11T07:12:04.360Z,6.30
2018-12-11T07:14:31.804Z,5.40
2018-12-11T07:16:59.264Z,5.00
2018-12-11T07:19:26.711Z,5.83
2018-12-11T07:21:54.179Z,4.50
2018-12-11T07:24:21.633Z,7.07
2018-12-11T07:26:49.085Z,5.90
2018-12-11T07:29:16.555Z,6.43
2018-12-11T07:31:44.273Z,5.03
2018-12-11T07:34:11.723Z,5.37
2018-12-11T07:36:39.222Z,3.40
2018-12-11T07:39:06.677Z,4.70
2018-12-11T07:41:34.125Z,3.63
2018-12-11T07:44:01.684Z,7.40
2018-12-11T07:46:29.141Z,3.87
2018-12-11T07:48:56.580Z,4.10
2018-12-11T07:51:24.024Z,6.30
2018-12-11T07:53:51.519Z,4.90
2018-12-11T07:56:19.068Z,3.43
2018-12-11T07:58:46.511Z,5.03
2018-12-11T08:01:13.981Z,8.57
2018-12-11T08:03:41.443Z,4.23
2018-12-11T08:06:08.993Z,3.20
2018-12-11T08:08:37.435Z,2.67
2018-12-11T08:11:04.929Z,3.07
2018-12-11T08:13:32.389Z,5.27
2018-12-11T08:15:59.841Z,2.83
2018-12-11T08:18:27.297Z,3.53
2018-12-11T08:20:54.753Z,3.60
2018-12-11T08:23:22.197Z,3.50
2018-12-11T08:25:49.665Z,4.27
2018-12-11T08:28:17.192Z,4.27
2018-12-11T08:30:44.685Z,4.43
2018-12-11T08:33:12.133Z,5.27
2018-12-11T08:35:39.577Z,3.93
2018-12-11T08:38:07.052Z,3.77
2018-12-11T08:40:34.508Z,3.17
2018-12-11T08:43:01.949Z,4.00
2018-12-11T08:45:29.420Z,4.47
2018-12-11T08:47:56.931Z,2.50
2018-12-11T08:50:24.428Z,3.57
2018-12-11T08:52:51.884Z,3.07
2018-12-11T08:55:19.316Z,3.00
2018-12-11T08:57:46.773Z,3.20
2018-12-11T09:00:14.252Z,2.93
2018-12-11T09:02:41.708Z,2.93
2018-12-11T09:05:09.165Z,3.20
2018-12-11T09:07:36.620Z,3.03
2018-12-11T09:10:06.132Z,3.00
2018-12-11T09:12:33.660Z,2.57
2018-12-11T09:15:01.141Z,2.87
2018-12-11T09:17:28.597Z,3.33
2018-12-11T09:19:56.041Z,2.77
2018-12-11T09:22:23.497Z,2.93
2018-12-11T09:24:50.965Z,2.43
2018-12-11T09:27:18.420Z,1.70
2018-12-11T09:29:45.876Z,1.90
2018-12-11T09:32:13.610Z,4.20
2018-12-11T09:34:41.092Z,1.80
2018-12-11T09:37:08.552Z,2.30
2018-12-11T09:39:36.725Z,2.03
2018-12-11T09:42:07.208Z,2.27
2018-12-11T09:44:33.683Z,2.37
2018-12-11T09:47:01.130Z,2.40
2018-12-11T09:49:29.909Z,1.87
2018-12-11T09:51:57.591Z,2.30
2018-12-11T09:54:25.045Z,2.57
2018-12-11T09:56:52.496Z,2.73
2018-12-11T09:59:23.422Z,2.07
2018-12-11T10:01:50.185Z,2.40
2018-12-11T10:04:17.737Z,3.63
2018-12-11T10:06:45.190Z,3.80
2018-12-11T10:09:12.645Z,2.03
2018-12-11T10:11:40.105Z,3.13
2018-12-11T10:14:07.556Z,2.53
2018-12-11T10:16:35.013Z,2.83
2018-12-11T10:19:02.468Z,1.53
2018-12-11T10:21:29.906Z,4.83
2018-12-11T10:23:57.385Z,2.27
2018-12-11T10:26:24.837Z,1.13
2018-12-11T10:28:52.280Z,1.93
2018-12-11T10:31:19.753Z,1.50
2018-12-11T10:33:47.213Z,3.07
2018-12-11T10:36:14.660Z,1.87
2018-12-11T10:38:42.100Z,2.70
2018-12-11T10:41:09.576Z,2.03
2018-12-11T10:43:37.033Z,1.23
2018-12-11T10:46:04.489Z,1.57
2018-12-11T10:48:31.941Z,1.70
2018-12-11T10:50:59.397Z,3.00
2018-12-11T10:53:26.852Z,1.40
2018-12-11T10:55:54.589Z,2.07
2018-12-11T10:58:22.049Z,2.07
2018-12-11T11:00:55.169Z,2.90
2018-12-11T11:03:22.617Z,2.80
2018-12-11T11:05:50.081Z,2.43
2018-12-11T11:08:17.628Z,1.50
2018-12-11T11:10:45.089Z,1.90
2018-12-11T11:13:12.660Z,1.27
2018-12-11T11:15:40.206Z,1.67
2018-12-11T11:18:07.674Z,1.90
2018-12-11T11:20:35.196Z,1.37
2018-12-11T11:23:02.701Z,1.20
2018-12-11T11:25:30.228Z,1.27
2018-12-11T11:27:57.689Z,2.77
2018-12-11T11:30:25.144Z,0.77
2018-12-11T11:32:52.601Z,1.53
2018-12-11T11:35:20.057Z,1.30
2018-12-11T11:37:47.492Z,1.80
2018-12-11T11:40:14.976Z,1.20
2018-12-11T11:42:42.824Z,1.70
2018-12-11T11:45:10.689Z,1.87
2018-12-11T11:47:38.157Z,1.27
2018-12-11T11:50:07.941Z,3.33
2018-12-11T11:52:35.432Z,1.23
2018-12-11T11:55:02.983Z,2.00
2018-12-11T11:57:30.440Z,1.90
2018-12-11T11:59:57.992Z,1.27
2018-12-11T12:02:25.449Z,1.40
2018-12-11T12:04:52.921Z,1.57
2018-12-11T12:07:20.481Z,0.97
2018-12-11T12:09:47.932Z,0.97
2018-12-11T12:12:15.376Z,0.87
2018-12-11T12:14:48.935Z,1.30
2018-12-11T12:17:12.558Z,0.87
2018-12-11T12:19:40.105Z,1.83
2018-12-11T12:22:07.556Z,1.33
2018-12-11T12:24:35.015Z,1.07
2018-12-11T12:27:02.568Z,0.90
2018-12-11T12:29:30.025Z,2.10
2018-12-11T12:31:57.593Z,1.13
2018-12-11T12:34:25.865Z,1.33
2018-12-11T12:36:53.322Z,2.40
2018-12-11T12:39:20.776Z,1.97
2018-12-11T12:41:48.328Z,2.10
2018-12-11T12:44:15.764Z,4.07
2018-12-11T12:46:43.244Z,10.90
2018-12-11T12:49:10.700Z,24.53
2018-12-11T12:51:38.262Z,15.07
2018-12-11T12:54:05.721Z,15.97
2018-12-11T12:56:33.277Z,20.13
2018-12-11T12:59:00.737Z,35.97
2018-12-11T13:01:28.288Z,17.27
2018-12-11T13:03:55.840Z,9.10
2018-12-11T13:06:23.497Z,8.67
2018-12-11T13:08:51.046Z,9.00
2018-12-11T13:11:18.525Z,15.07
2018-12-11T13:13:45.977Z,7.63
2018-12-11T13:16:13.452Z,10.33
2018-12-11T13:18:40.989Z,8.70
2018-12-11T13:21:08.496Z,19.10
2018-12-11T13:23:35.978Z,15.73
2018-12-11T13:26:03.465Z,11.90
2018-12-11T13:28:30.981Z,6.47
2018-12-11T13:30:58.492Z,7.57
2018-12-11T13:33:25.920Z,7.70
2018-12-11T13:35:53.660Z,9.50
2018-12-11T13:38:21.114Z,8.50
2018-12-11T13:40:48.765Z,6.93
2018-12-11T13:43:16.213Z,5.43
2018-12-11T13:45:43.648Z,5.70
2018-12-11T13:48:11.280Z,5.83
2018-12-11T13:50:38.736Z,5.00
2018-12-11T13:53:06.196Z,7.00
2018-12-11T13:55:33.649Z,6.63
2018-12-11T13:58:01.097Z,5.27
2018-12-11T14:00:28.561Z,6.43
2018-12-11T14:02:56.116Z,5.03
2018-12-11T14:05:23.573Z,4.50
2018-12-11T14:07:51.028Z,7.03
2018-12-11T14:10:18.760Z,5.33
2018-12-11T14:12:46.252Z,4.70
2018-12-11T14:15:13.701Z,6.97
2018-12-11T14:17:41.164Z,11.83
2018-12-11T14:20:08.620Z,12.27
2018-12-11T14:22:36.175Z,8.00
2018-12-11T14:25:03.960Z,5.30
2018-12-11T14:27:31.500Z,5.87
2018-12-11T14:29:59.019Z,6.40
2018-12-11T14:32:26.508Z,4.37
2018-12-11T14:34:53.965Z,5.13
2018-12-11T14:37:21.426Z,8.33
2018-12-11T14:39:48.873Z,5.07
2018-12-11T14:42:16.319Z,10.33
2018-12-11T14:44:43.793Z,6.20
2018-12-11T14:47:11.236Z,4.47
2018-12-11T14:49:38.673Z,5.80
2018-12-11T14:52:06.173Z,3.57
2018-12-11T14:54:33.613Z,7.70
2018-12-11T14:57:01.075Z,5.73
2018-12-11T14:59:28.514Z,6.20
2018-12-11T15:01:55.983Z,7.43
2018-12-11T15:04:23.624Z,4.17
2018-12-11T15:06:51.101Z,4.27
2018-12-11T15:09:24.368Z,3.97
2018-12-11T15:11:51.849Z,5.83
2018-12-11T15:14:19.305Z,4.63
2018-12-11T15:16:46.764Z,3.07
2018-12-11T15:19:14.205Z,3.13
2018-12-11T15:21:41.668Z,4.50
2018-12-11T15:24:09.232Z,5.30
2018-12-11T15:26:36.789Z,5.07
2018-12-11T15:29:04.240Z,3.67
2018-12-11T15:31:31.705Z,6.33
2018-12-11T15:33:59.156Z,4.07
2018-12-11T15:36:27.185Z,4.20
2018-12-11T15:38:54.988Z,3.93
2018-12-11T15:41:22.444Z,3.47
2018-12-11T15:43:50.737Z,3.07
2018-12-11T15:46:18.340Z,3.23
2018-12-11T15:48:46.117Z,5.20
2018-12-11T15:51:13.606Z,4.57
2018-12-11T15:53:41.153Z,2.10
2018-12-11T15:56:08.606Z,5.13
2018-12-11T15:58:36.344Z,4.67
2018-12-11T16:01:03.780Z,4.07
2018-12-11T16:03:31.218Z,3.00
2018-12-11T16:05:58.749Z,19.83
2018-12-11T16:08:26.208Z,4.83
2018-12-11T16:10:53.673Z,5.70
2018-12-11T16:13:21.114Z,5.80
2018-12-11T16:15:48.758Z,5.37
2018-12-11T16:18:16.229Z,4.23
2018-12-11T16:20:43.716Z,4.53
2018-12-11T16:23:11.244Z,5.53
2018-12-11T16:25:38.701Z,4.67
2018-12-11T16:28:06.162Z,12.23
2018-12-11T16:30:33.713Z,12.77
2018-12-11T16:33:01.152Z,8.67
2018-12-11T16:35:28.629Z,6.43
2018-12-11T16:37:56.069Z,6.77
2018-12-11T16:40:23.537Z,7.57
2018-12-11T16:42:50.985Z,4.77
2018-12-11T16:45:18.473Z,12.40
2018-12-11T16:47:46.014Z,7.40
2018-12-11T16:50:13.593Z,10.43
2018-12-11T16:52:41.124Z,8.17
2018-12-11T16:55:08.648Z,6.93
2018-12-11T16:57:36.064Z,5.73
2018-12-11T17:00:05.646Z,6.57
2018-12-11T17:02:33.085Z,5.20
2018-12-11T17:05:00.552Z,6.13
2018-12-11T17:07:28.115Z,4.00
2018-12-11T17:09:55.575Z,7.07
2018-12-11T17:12:23.041Z,5.83
2018-12-11T17:14:50.501Z,5.90
2018-12-11T17:17:18.041Z,7.57
2018-12-11T17:19:45.492Z,4.77
2018-12-11T17:22:12.953Z,6.77
2018-12-11T17:24:40.408Z,6.00
2018-12-11T17:27:07.868Z,8.30
2018-12-11T17:29:35.305Z,7.90
2018-12-11T17:32:02.869Z,3.80
2018-12-11T17:34:30.334Z,3.47
2018-12-11T17:36:57.797Z,9.40
2018-12-11T17:39:25.229Z,3.83
2018-12-11T17:41:53.729Z,4.63
2018-12-11T17:44:21.173Z,3.37
2018-12-11T17:46:48.636Z,6.77
2018-12-11T17:49:16.092Z,6.47
2018-12-11T17:51:43.829Z,3.63
2018-12-11T17:54:11.589Z,4.60
2018-12-11T17:56:39.049Z,4.93
2018-12-11T17:59:06.532Z,4.83
2018-12-11T18:01:34.507Z,5.83
2018-12-11T18:04:01.933Z,6.03
2018-12-11T18:06:29.422Z,3.50
2018-12-11T18:08:56.872Z,4.10
2018-12-11T18:11:24.368Z,6.20
2018-12-11T18:13:51.811Z,5.87
2018-12-11T18:16:19.273Z,5.57
2018-12-11T18:18:46.800Z,5.70
2018-12-11T18:21:14.238Z,3.33
2018-12-11T18:23:41.704Z,6.83
2018-12-11T18:26:09.164Z,4.97
2018-12-11T18:28:36.626Z,2.47
2018-12-11T18:31:04.065Z,4.97
2018-12-11T18:33:31.530Z,2.70
2018-12-11T18:35:58.965Z,3.30
2018-12-11T18:38:26.521Z,3.87
2018-12-11T18:40:53.952Z,8.13
2018-12-11T18:43:21.461Z,5.13
2018-12-11T18:45:48.913Z,2.83
2018-12-11T18:48:16.390Z,3.17
2018-12-11T18:50:43.824Z,3.93
2018-12-11T18:53:11.335Z,2.90
2018-12-11T18:55:38.856Z,3.13
2018-12-11T18:58:06.308Z,4.77
2018-12-11T19:00:33.852Z,3.53
2018-12-11T19:03:01.314Z,3.00
2018-12-11T19:05:28.869Z,4.03
2018-12-11T19:07:57.037Z,4.67
2018-12-11T19:10:24.519Z,4.20
2018-12-11T19:12:52.056Z,4.03
2018-12-11T19:15:19.492Z,2.80
2018-12-11T19:17:46.964Z,4.23
2018-12-11T19:20:14.432Z,4.60
2018-12-11T19:22:41.989Z,3.03
2018-12-11T19:25:12.849Z,7.53
2018-12-11T19:27:41.801Z,4.10
2018-12-11T19:30:09.577Z,4.00
2018-12-11T19:32:37.024Z,3.80
2018-12-11T19:35:05.405Z,7.37
2018-12-11T19:37:32.875Z,3.97
2018-12-11T19:40:02.186Z,5.63
2018-12-11T19:42:29.765Z,4.67
2018-12-11T19:44:57.197Z,2.13
2018-12-11T19:47:24.633Z,3.50
2018-12-11T19:49:52.193Z,5.00
2018-12-11T19:52:19.921Z,3.73
2018-12-11T19:54:47.365Z,4.30
2018-12-11T19:57:14.861Z,4.83
2018-12-11T19:59:42.387Z,9.10
2018-12-11T20:02:09.865Z,4.77
2018-12-11T20:04:37.333Z,4.77
2018-12-11T20:07:04.781Z,4.23
2018-12-11T20:09:32.344Z,2.33
2018-12-11T20:11:59.789Z,2.70
2018-12-11T20:14:27.325Z,3.30
2018-12-11T20:16:54.816Z,2.17
2018-12-11T20:19:22.482Z,3.83
2018-12-11T20:21:49.937Z,2.83
2018-12-11T20:24:17.393Z,2.53
2018-12-11T20:26:44.832Z,6.93
2018-12-11T20:29:12.273Z,3.57
2018-12-11T20:31:39.757Z,2.17
2018-12-11T20:34:07.200Z,2.63
2018-12-11T20:36:34.644Z,3.20
2018-12-11T20:39:02.097Z,5.00
2018-12-11T20:41:29.585Z,4.43
2018-12-11T20:43:57.026Z,5.67
2018-12-11T20:46:24.469Z,4.80
2018-12-11T20:48:51.912Z,5.37
2018-12-11T20:51:19.409Z,4.50
2018-12-11T20:53:46.861Z,4.53
2018-12-11T20:56:14.320Z,6.93
2018-12-11T20:58:42.488Z,7.40
2018-12-11T21:01:09.934Z,4.47
2018-12-11T21:03:37.371Z,4.83
2018-12-11T21:06:04.812Z,6.63
2018-12-11T21:08:32.265Z,3.87
2018-12-11T21:10:59.754Z,8.47
2018-12-11T21:13:27.201Z,2.80
2018-12-11T21:15:54.746Z,6.27
2018-12-11T21:18:22.257Z,3.13
2018-12-11T21:20:49.802Z,2.80
2018-12-11T21:23:17.257Z,6.83
2018-12-11T21:25:44.713Z,8.33
2018-12-11T21:28:12.164Z,7.80
2018-12-11T21:30:39.666Z,3.67
2018-12-11T21:33:07.183Z,4.67
2018-12-11T21:35:34.632Z,6.40
2018-12-11T21:38:02.088Z,4.03
2018-12-11T21:40:29.528Z,4.07
2018-12-11T21:42:57.005Z,4.60
2018-12-11T21:45:24.460Z,4.27
2018-12-11T21:47:51.904Z,5.17
2018-12-11T21:50:19.343Z,2.60
2018-12-11T21:52:46.793Z,1.93
2018-12-11T21:55:14.284Z,5.60
2018-12-11T21:57:41.737Z,1.73
2018-12-11T22:00:09.304Z,2.00
2018-12-11T22:02:36.862Z,4.00
2018-12-11T22:05:05.021Z,2.30
2018-12-11T22:07:32.481Z,4.23
2018-12-11T22:09:59.916Z,6.30
2018-12-11T22:12:28.092Z,2.93
2018-12-11T22:14:55.579Z,4.23
2018-12-11T22:17:23.125Z,3.30
2018-12-11T22:19:50.684Z,2.00
2018-12-11T22:22:18.140Z,1.80
2018-12-11T22:24:45.584Z,2.53
2018-12-11T22:27:13.053Z,2.60
2018-12-11T22:29:40.509Z,2.23
2018-12-11T22:32:08.073Z,4.17
2018-12-11T22:34:35.528Z,3.73
2018-12-11T22:37:02.961Z,3.87
2018-12-11T22:39:30.714Z,1.77
2018-12-11T22:41:58.201Z,2.27
2018-12-11T22:44:25.653Z,1.47
2018-12-11T22:46:53.114Z,2.57
2018-12-11T22:49:20.585Z,2.17
2018-12-11T22:51:48.339Z,3.80
2018-12-11T22:54:16.105Z,3.30
2018-12-11T22:56:43.549Z,2.37
2018-12-11T22:59:11.280Z,2.80
2018-12-11T23:01:38.721Z,1.40
2018-12-11T23:04:06.229Z,1.90
2018-12-11T23:06:33.660Z,3.67
2018-12-11T23:09:01.138Z,1.07
2018-12-11T23:11:28.668Z,0.93
2018-12-11T23:13:56.152Z,10.13
2018-12-11T23:16:23.608Z,2.07
2018-12-11T23:18:51.064Z,2.43
2018-12-11T23:21:18.576Z,5.50
2018-12-11T23:23:46.557Z,2.17
2018-12-11T23:26:14.049Z,3.13
2018-12-11T23:28:41.504Z,2.50
2018-12-11T23:31:08.956Z,4.37
2018-12-11T23:33:36.414Z,1.70
2018-12-11T23:36:03.873Z,1.93
2018-12-11T23:38:31.322Z,1.40
2018-12-11T23:40:59.056Z,2.33
2018-12-11T23:43:26.497Z,2.43
2018-12-11T23:45:54.000Z,2.53
2018-12-11T23:48:21.462Z,5.13
2018-12-11T23:50:49.016Z,5.00
2018-12-11T23:53:16.469Z,4.63
2018-12-11T23:55:43.920Z,2.90
2018-12-11T23:58:11.355Z,1.93
